Time;durP1;ratioP1;P1;durP2;ratioP2;P2;SDS_P1;SDS_P2;PMS_P1;PMS_P2;Temp;Humidity;BMP_temperature;BMP_pressure;BME280_temperature;BME280_humidity;BME280_pressure;Samples;Min_cycle;Max_cycle;Signal;HPM_P1;HPM_P2
2021/06/07 02:47:47;;;;;;;1.80;1.70;;;15.60;99.90;;;;;;5277831;22;94631;-83
2021/06/07 02:50:15;;;;;;;2.10;1.90;;;15.60;99.90;;;;;;4966604;28;92048;-84
2021/06/07 02:52:48;;;;;;;2.80;2.08;;;15.60;99.90;;;;;;4964067;28;92035;-84
2021/06/07 02:55:38;;;;;;;2.60;2.15;;;15.70;99.90;;;;;;4967479;28;90490;-85
2021/06/07 02:58:05;;;;;;;2.77;1.90;;;15.60;99.90;;;;;;4959271;28;93709;-86
2021/06/07 03:00:36;;;;;;;1.70;1.58;;;15.70;99.90;;;;;;4970514;28;91871;-86
2021/06/07 03:03:05;;;;;;;2.75;1.90;;;15.80;99.90;;;;;;4959278;28;92908;-85
2021/06/07 03:05:31;;;;;;;2.20;2.00;;;15.70;99.90;;;;;;4976996;28;91977;-86
2021/06/07 03:07:58;;;;;;;1.98;1.50;;;15.80;99.90;;;;;;4974533;28;93149;-86
2021/06/07 03:10:25;;;;;;;2.20;1.70;;;15.80;99.90;;;;;;4965679;28;91970;-84
2021/06/07 03:12:51;;;;;;;1.58;1.33;;;15.80;99.90;;;;;;4942582;28;91562;-85
2021/06/07 03:15:18;;;;;;;3.05;2.85;;;15.80;99.90;;;;;;4955767;28;92113;-85
2021/06/07 03:17:44;;;;;;;3.53;1.60;;;15.70;99.90;;;;;;4959635;28;92315;-84
2021/06/07 03:20:13;;;;;;;2.30;1.52;;;15.70;99.90;;;;;;4955144;28;91225;-85
2021/06/07 03:22:39;;;;;;;1.60;1.50;;;15.60;99.90;;;;;;4959976;28;92052;-85
2021/06/07 03:25:05;;;;;;;1.40;1.30;;;15.70;99.90;;;;;;4967853;28;91955;-85
2021/06/07 03:27:31;;;;;;;1.60;1.50;;;15.60;99.90;;;;;;4963129;28;92996;-85
2021/06/07 03:29:57;;;;;;;1.35;1.20;;;15.40;99.90;;;;;;4959890;28;92011;-84
2021/06/07 03:32:23;;;;;;;1.30;1.20;;;15.20;99.90;;;;;;4955302;28;91865;-84
2021/06/07 03:34:49;;;;;;;1.02;0.90;;;15.20;99.90;;;;;;4949255;28;91886;-85
2021/06/07 03:37:15;;;;;;;1.00;0.98;;;15.00;99.90;;;;;;4960276;28;92000;-85
2021/06/07 03:39:41;;;;;;;2.60;2.50;;;15.30;99.90;;;;;;4950240;28;91729;-87
2021/06/07 03:42:08;;;;;;;2.50;2.40;;;14.50;99.90;;;;;;4965947;28;91967;-85
2021/06/07 03:44:33;;;;;;;1.00;1.00;;;14.60;99.90;;;;;;4965062;28;91360;-85
2021/06/07 03:46:59;;;;;;;0.90;0.90;;;14.60;99.90;;;;;;4954607;28;93800;-85
2021/06/07 03:49:25;;;;;;;0.88;0.88;;;14.60;99.90;;;;;;4937510;28;92400;-86
2021/06/07 03:51:51;;;;;;;0.80;0.80;;;14.60;99.90;;;;;;4947676;28;92957;-85
2021/06/07 03:54:18;;;;;;;0.98;0.98;;;14.60;99.90;;;;;;4946512;28;91793;-85
2021/06/07 03:56:43;;;;;;;1.02;1.02;;;14.60;99.90;;;;;;4951415;28;93181;-85
2021/06/07 03:59:11;;;;;;;1.10;1.10;;;14.60;99.90;;;;;;4937746;28;92872;-85
2021/06/07 04:01:37;;;;;;;3.08;2.67;;;15.00;99.90;;;;;;4932799;28;91650;-87
2021/06/07 04:04:02;;;;;;;1.30;1.20;;;14.50;99.90;;;;;;4937220;28;92270;-86
2021/06/07 04:06:28;;;;;;;0.88;0.88;;;14.50;99.90;;;;;;4952429;28;92081;-87
2021/06/07 04:08:56;;;;;;;1.15;0.90;;;14.50;99.90;;;;;;4963836;28;91246;-87
2021/06/07 04:11:22;;;;;;;1.63;1.13;;;14.50;99.90;;;;;;4950135;28;91821;-84
2021/06/07 04:13:48;;;;;;;0.95;0.95;;;14.60;99.90;;;;;;4958460;28;91679;-86
2021/06/07 04:16:14;;;;;;;1.23;1.13;;;14.60;99.90;;;;;;4939526;28;92909;-86
2021/06/07 04:18:40;;;;;;;1.40;0.90;;;14.60;99.90;;;;;;4944225;28;92110;-83
2021/06/07 04:21:05;;;;;;;1.23;1.23;;;14.60;99.90;;;;;;4957894;28;91096;-83
2021/06/07 04:23:31;;;;;;;0.88;0.88;;;14.70;99.90;;;;;;4948799;28;91631;-84
2021/06/07 04:25:57;;;;;;;1.10;1.00;;;14.70;99.90;;;;;;4949998;28;92603;-84
2021/06/07 04:28:23;;;;;;;2.35;2.25;;;;;;;;;;4936517;28;91530;-86
2021/06/07 04:30:48;;;;;;;2.45;2.35;;;15.10;99.90;;;;;;4949127;28;91977;-83
2021/06/07 04:33:14;;;;;;;1.38;1.20;;;14.70;99.90;;;;;;4931091;28;91450;-85
2021/06/07 04:35:40;;;;;;;1.55;1.45;;;14.70;99.90;;;;;;4950072;28;92214;-83
2021/06/07 04:38:05;;;;;;;0.80;0.80;;;14.80;99.90;;;;;;4943168;28;92352;-84
2021/06/07 04:40:36;;;;;;;1.13;1.02;;;14.80;99.90;;;;;;4953430;28;93378;-85
2021/06/07 04:43:05;;;;;;;;;;;14.70;99.90;;;;;;4939971;28;91971;-84
2021/06/07 04:45:31;;;;;;;1.85;1.10;;;14.70;99.90;;;;;;4948985;28;92073;-83
2021/06/07 04:47:57;;;;;;;1.10;1.10;;;14.70;99.90;;;;;;4946485;28;91940;-85
2021/06/07 04:50:25;;;;;;;1.40;1.30;;;14.80;99.90;;;;;;4945543;28;91936;-85
2021/06/07 04:53:00;;;;;;;2.83;2.63;;;;;;;;;;4928313;28;91954;-85
2021/06/07 04:55:44;;;;;;;2.05;1.20;;;14.90;99.90;;;;;;4948276;28;92665;-84
2021/06/07 04:58:16;;;;;;;1.35;1.17;;;15.00;99.90;;;;;;4946872;28;91181;-88
2021/06/07 05:00:47;;;;;;;1.15;1.10;;;15.10;99.90;;;;;;4936012;28;92003;-86
2021/06/07 05:03:14;;;;;;;2.30;1.00;;;15.00;99.90;;;;;;4941570;28;92101;-85
2021/06/07 05:05:40;;;;;;;1.00;1.00;;;15.10;99.90;;;;;;4947402;28;93680;-84
2021/06/07 05:08:06;;;;;;;3.80;1.00;;;15.10;99.90;;;;;;4941205;28;92045;-84
2021/06/07 05:10:32;;;;;;;2.70;2.50;;;15.00;99.90;;;;;;4947582;28;92060;-85
2021/06/07 05:12:58;;;;;;;1.52;1.00;;;15.00;99.90;;;;;;4943767;28;92118;-85
2021/06/07 05:15:24;;;;;;;0.90;0.90;;;14.90;99.90;;;;;;4959385;28;92582;-84
2021/06/07 05:17:50;;;;;;;2.78;2.58;;;14.80;99.90;;;;;;4945967;28;91576;-85
2021/06/07 05:20:24;;;;;;;1.58;1.35;;;14.70;99.90;;;;;;4943536;28;92855;-83
2021/06/07 05:22:51;;;;;;;0.88;0.88;;;14.70;99.90;;;;;;4939844;28;91267;-84
2021/06/07 05:25:18;;;;;;;2.25;1.02;;;14.80;99.90;;;;;;4941545;28;93091;-87
2021/06/07 05:27:44;;;;;;;2.70;2.60;;;14.50;99.90;;;;;;4939191;28;92770;-86
2021/06/07 05:30:11;;;;;;;0.90;0.90;;;14.70;99.90;;;;;;4938761;28;92987;-85
2021/06/07 05:32:37;;;;;;;2.40;2.30;;;15.20;99.90;;;;;;4937595;28;91962;-86
2021/06/07 05:35:09;;;;;;;0.80;0.80;;;14.70;99.90;;;;;;4946992;28;93209;-84
2021/06/07 05:37:35;;;;;;;2.65;2.55;;;15.20;99.90;;;;;;4944752;28;91986;-85
2021/06/07 05:40:01;;;;;;;1.17;1.17;;;14.70;99.90;;;;;;4944804;28;92048;-87
2021/06/07 05:42:27;;;;;;;3.20;3.10;;;;;;;;;;4946220;28;91700;-88
2021/06/07 05:44:53;;;;;;;1.15;1.13;;;14.80;99.90;;;;;;4932476;28;92129;-85
2021/06/07 05:47:19;;;;;;;1.73;1.10;;;14.90;99.90;;;;;;4944453;28;91306;-84
2021/06/07 05:49:45;;;;;;;2.92;2.83;;;15.50;99.90;;;;;;4962048;28;91268;-86
2021/06/07 05:52:12;;;;;;;1.00;1.00;;;14.90;99.90;;;;;;4947300;28;91937;-85
2021/06/07 05:54:39;;;;;;;1.08;0.98;;;15.00;99.90;;;;;;4949428;28;92956;-83
2021/06/07 05:57:06;;;;;;;3.05;2.72;;;15.40;99.90;;;;;;4959007;28;92601;-84
2021/06/07 05:59:35;;;;;;;0.80;0.80;;;15.10;99.90;;;;;;4950528;28;92118;-84
2021/06/07 06:02:01;;;;;;;1.40;1.15;;;15.30;99.90;;;;;;4947034;28;91900;-85
2021/06/07 06:04:27;;;;;;;1.30;1.20;;;15.50;99.90;;;;;;4946924;28;92768;-82
2021/06/07 06:06:53;;;;;;;1.35;1.05;;;15.70;99.90;;;;;;4948988;28;92232;-85
2021/06/07 06:09:18;;;;;;;3.20;2.90;;;16.30;99.90;;;;;;4946659;28;92139;-85
2021/06/07 06:11:44;;;;;;;1.35;1.25;;;15.90;99.90;;;;;;4943068;28;91269;-82
2021/06/07 06:14:10;;;;;;;3.03;1.55;;;16.10;99.90;;;;;;4937353;28;92246;-85
2021/06/07 06:16:36;;;;;;;3.42;3.22;;;16.50;99.90;;;;;;4948674;28;92770;-84
2021/06/07 06:19:02;;;;;;;3.15;2.85;;;16.40;99.90;;;;;;4931040;28;92800;-85
2021/06/07 06:21:28;;;;;;;1.80;1.70;;;16.60;99.90;;;;;;4944555;28;91651;-83
2021/06/07 06:23:55;;;;;;;2.00;1.73;;;16.70;99.90;;;;;;4954899;28;92404;-84
2021/06/07 06:26:21;;;;;;;1.77;1.40;;;16.90;99.90;;;;;;4929339;28;91911;-82
2021/06/07 06:28:48;;;;;;;2.08;1.50;;;17.10;99.90;;;;;;4941713;28;92158;-82
2021/06/07 06:31:15;;;;;;;3.33;3.05;;;16.80;99.90;;;;;;4944556;28;92093;-86
2021/06/07 06:33:41;;;;;;;2.83;1.52;;;17.40;99.90;;;;;;4946322;28;92333;-84
2021/06/07 06:36:07;;;;;;;3.65;1.60;;;17.70;99.90;;;;;;4946177;28;91417;-82
2021/06/07 06:38:33;;;;;;;3.30;3.10;;;18.80;99.90;;;;;;4944074;28;91724;-84
2021/06/07 06:40:59;;;;;;;2.22;1.70;;;18.20;99.90;;;;;;4939213;28;92133;-85
2021/06/07 06:43:25;;;;;;;2.30;1.40;;;18.50;99.90;;;;;;4940328;28;93174;-83
2021/06/07 06:45:51;;;;;;;1.95;1.50;;;18.70;99.90;;;;;;4936538;28;93305;-84
2021/06/07 06:48:17;;;;;;;3.50;3.20;;;18.70;99.90;;;;;;4939358;28;92099;-83
2021/06/07 06:50:44;;;;;;;3.05;1.70;;;19.00;99.90;;;;;;4938242;28;92105;-84
2021/06/07 06:53:15;;;;;;;2.15;1.50;;;19.00;99.90;;;;;;4945672;28;92741;-84
2021/06/07 06:55:42;;;;;;;2.65;1.80;;;19.00;99.90;;;;;;4940328;28;91982;-83
2021/06/07 06:58:08;;;;;;;3.35;3.05;;;19.40;99.90;;;;;;4931838;28;92079;-85
2021/06/07 07:00:37;;;;;;;2.95;2.80;;;19.70;99.90;;;;;;4932810;28;91360;-84
2021/06/07 07:03:08;;;;;;;1.80;1.50;;;19.50;99.90;;;;;;4938898;28;92415;-83
2021/06/07 07:05:35;;;;;;;1.45;1.35;;;19.60;99.90;;;;;;4945738;28;92107;-84
2021/06/07 07:08:01;;;;;;;1.33;1.20;;;19.80;99.90;;;;;;4940699;28;92919;-83
2021/06/07 07:10:26;;;;;;;1.73;1.60;;;20.10;99.90;;;;;;4935131;28;92081;-83
2021/06/07 07:12:52;;;;;;;1.50;1.20;;;20.30;99.90;;;;;;4932728;28;92207;-82
2021/06/07 07:15:18;;;;;;;1.30;1.30;;;20.60;99.90;;;;;;4946299;28;93830;-83
2021/06/07 07:17:46;;;;;;;2.45;2.35;;;20.90;99.90;;;;;;4943780;28;91645;-85
2021/06/07 07:20:13;;;;;;;2.70;2.60;;;20.60;99.90;;;;;;4949038;28;92688;-85
2021/06/07 07:22:39;;;;;;;2.47;2.38;;;21.20;99.90;;;;;;4941105;28;91683;-85
2021/06/07 07:25:07;;;;;;;2.50;2.40;;;21.20;99.90;;;;;;4937221;28;91289;-85
2021/06/07 07:27:35;;;;;;;2.40;2.30;;;20.90;99.90;;;;;;4943035;28;92091;-85
2021/06/07 07:30:08;;;;;;;1.80;1.00;;;21.30;99.90;;;;;;4953354;28;91712;-86
2021/06/07 07:32:36;;;;;;;2.50;2.38;;;21.50;99.90;;;;;;4944402;28;93251;-86
2021/06/07 07:35:02;;;;;;;1.05;1.05;;;21.50;99.90;;;;;;4951754;28;91993;-86
2021/06/07 07:37:30;;;;;;;1.17;1.10;;;21.50;99.90;;;;;;4949173;28;92274;-85
2021/06/07 07:39:56;;;;;;;1.20;1.10;;;21.70;99.90;;;;;;4950404;28;92106;-85
2021/06/07 07:42:22;;;;;;;1.20;1.10;;;21.70;99.90;;;;;;4945713;28;92834;-85
2021/06/07 07:44:48;;;;;;;1.13;1.10;;;21.80;99.90;;;;;;4935206;28;93088;-85
2021/06/07 07:47:13;;;;;;;1.20;1.10;;;21.90;99.90;;;;;;4952776;28;91734;-84
2021/06/07 07:49:39;;;;;;;1.40;1.30;;;21.90;99.90;;;;;;4949103;28;90839;-86
2021/06/07 07:52:07;;;;;;;2.70;2.60;;;21.70;99.90;;;;;;4939513;28;93023;-86
2021/06/07 07:54:34;;;;;;;2.90;2.80;;;21.40;99.90;;;;;;4946230;28;94219;-85
2021/06/07 07:57:00;;;;;;;2.85;2.70;;;22.20;99.90;;;;;;4947568;28;92844;-86
2021/06/07 07:59:26;;;;;;;3.00;2.90;;;22.40;99.90;;;;;;4943114;28;92168;-85
2021/06/07 08:01:52;;;;;;;2.55;2.45;;;22.20;99.90;;;;;;4950760;28;92134;-86
2021/06/07 08:04:18;;;;;;;2.60;2.50;;;;;;;;;;4949997;28;92426;-86
2021/06/07 08:06:44;;;;;;;1.35;1.30;;;22.70;99.90;;;;;;4947586;28;92106;-84
2021/06/07 08:09:11;;;;;;;1.10;1.10;;;22.90;99.90;;;;;;4949006;28;91932;-86
2021/06/07 08:11:37;;;;;;;1.88;1.52;;;23.10;99.90;;;;;;4947612;28;92823;-86
2021/06/07 08:14:04;;;;;;;3.67;3.47;;;23.80;99.90;;;;;;4947071;28;91887;-85
2021/06/07 08:16:29;;;;;;;1.58;1.48;;;23.40;99.90;;;;;;4948413;28;91880;-86
2021/06/07 08:18:55;;;;;;;2.70;2.60;;;;;;;;;;4949177;28;91800;-86
2021/06/07 08:21:22;;;;;;;8.07;4.18;;;;;;;;;;4945774;28;93230;-86
2021/06/07 08:23:48;;;;;;;5.60;3.38;;;;;;;;;;4949553;28;92912;-85
2021/06/07 08:26:14;;;;;;;2.80;2.70;;;;;;;;;;4948883;28;91700;-85
2021/06/07 08:28:40;;;;;;;1.60;1.50;;;23.20;99.10;;;;;;4945269;28;91988;-87
2021/06/07 08:31:06;;;;;;;1.55;1.45;;;23.20;99.30;;;;;;4939993;28;92306;-85
2021/06/07 08:33:35;;;;;;;2.90;2.70;;;22.90;99.70;;;;;;4946406;28;92845;-86
2021/06/07 08:36:02;;;;;;;2.72;2.63;;;22.60;98.20;;;;;;4946818;28;92021;-85
2021/06/07 08:38:28;;;;;;;1.50;1.40;;;23.00;99.00;;;;;;4950568;28;91248;-85
2021/06/07 08:40:54;;;;;;;2.47;1.40;;;23.00;99.40;;;;;;4925459;28;96147;-86
2021/06/07 08:43:21;;;;;;;3.30;3.00;;;23.00;99.70;;;;;;4946226;28;92390;-86
2021/06/07 08:45:47;;;;;;;2.38;1.50;;;23.00;99.90;;;;;;4947655;28;93356;-85
2021/06/07 08:48:13;;;;;;;2.90;2.80;;;23.60;99.80;;;;;;4948453;28;91967;-86
2021/06/07 08:50:39;;;;;;;1.40;1.30;;;23.40;99.90;;;;;;4945523;28;92101;-85
2021/06/07 08:53:06;;;;;;;3.40;3.10;;;24.20;99.20;;;;;;4948400;28;92014;-85
2021/06/07 08:55:34;;;;;;;4.82;3.75;;;23.90;99.30;;;;;;4939494;28;92067;-85
2021/06/07 08:58:02;;;;;;;2.97;2.78;;;23.90;97.00;;;;;;4950424;28;91910;-85
2021/06/07 09:00:31;;;;;;;1.80;1.65;;;24.40;97.30;;;;;;4947012;28;91812;-86
2021/06/07 09:03:15;;;;;;;1.60;1.50;;;24.70;96.00;;;;;;4945081;28;91490;-85
2021/06/07 09:05:46;;;;;;;2.15;1.80;;;24.70;94.90;;;;;;4938881;28;92084;-83
2021/06/07 09:08:14;;;;;;;3.50;3.20;;;25.00;95.20;;;;;;4933919;28;91981;-84
2021/06/07 09:10:44;;;;;;;3.05;2.92;;;25.00;95.40;;;;;;4938740;28;94229;-84
2021/06/07 09:13:12;;;;;;;2.75;2.65;;;25.70;94.40;;;;;;4934128;28;92271;-85
2021/06/07 09:16:04;;;;;;;2.53;1.70;;;25.70;94.00;;;;;;4943083;28;92008;-83
2021/06/07 09:18:39;;;;;;;3.55;3.17;;;27.20;92.90;;;;;;4931423;28;91980;-86
2021/06/07 09:21:14;;;;;;;3.25;3.00;;;28.60;89.40;;;;;;4938714;28;93045;-85
2021/06/07 09:23:54;;;;;;;2.88;2.78;;;30.20;76.00;;;;;;4940025;28;92779;-85
2021/06/07 09:26:38;;;;;;;3.13;2.95;;;31.40;74.10;;;;;;4939487;28;91923;-82
2021/06/07 09:29:07;;;;;;;3.10;3.00;;;32.30;64.60;;;;;;4942789;28;91218;-84
2021/06/07 09:31:34;;;;;;;1.67;1.63;;;32.30;65.80;;;;;;4942885;28;92324;-85
2021/06/07 09:34:07;;;;;;;1.70;1.60;;;32.10;63.00;;;;;;4928978;28;91921;-85
2021/06/07 09:36:43;;;;;;;1.58;1.48;;;31.90;62.90;;;;;;4943718;28;92874;-85
2021/06/07 09:39:15;;;;;;;3.60;3.40;;;31.60;61.10;;;;;;4943045;28;91993;-84
2021/06/07 09:41:56;;;;;;;3.47;3.17;;;31.50;59.70;;;;;;4944781;28;92725;-84
2021/06/07 09:44:44;;;;;;;3.97;3.67;;;31.30;60.60;;;;;;4943463;28;92009;-85
2021/06/07 09:47:25;;;;;;;3.58;3.38;;;30.70;61.40;;;;;;4940453;28;91763;-84
2021/06/07 09:50:04;;;;;;;3.15;3.05;;;31.80;60.60;;;;;;4937422;28;92134;-81
2021/06/07 09:52:34;;;;;;;1.67;1.58;;;31.90;60.40;;;;;;4932588;28;92003;-84
2021/06/07 09:55:17;;;;;;;1.50;1.50;;;32.90;58.10;;;;;;4944136;28;91870;-84
2021/06/07 09:57:58;;;;;;;3.55;3.35;;;33.20;57.50;;;;;;4945033;28;91968;-85
2021/06/07 10:00:36;;;;;;;3.90;3.53;;;33.20;58.20;;;;;;4941718;28;92079;-85
2021/06/07 10:03:21;;;;;;;3.50;3.40;;;32.40;57.40;;;;;;4943169;28;93733;-84
2021/06/07 10:05:49;;;;;;;3.30;3.20;;;32.70;57.70;;;;;;4942733;28;92538;-85
2021/06/07 10:08:17;;;;;;;3.50;3.40;;;33.10;58.00;;;;;;4941568;28;91918;-84
2021/06/07 10:10:43;;;;;;;3.90;3.70;;;33.70;57.70;;;;;;4937061;28;92005;-84
2021/06/07 10:13:11;;;;;;;3.20;3.10;;;34.30;56.20;;;;;;4942651;28;92204;-85
2021/06/07 10:15:40;;;;;;;2.00;1.90;;;34.70;55.20;;;;;;4940449;28;92287;-85
2021/06/07 10:18:10;;;;;;;3.65;3.55;;;35.00;51.30;;;;;;4946518;28;91365;-84
2021/06/07 10:20:49;;;;;;;1.80;1.70;;;34.80;52.50;;;;;;4934480;28;91353;-84
2021/06/07 10:23:19;;;;;;;3.47;3.37;;;34.50;51.40;;;;;;4936141;28;92338;-84
2021/06/07 10:25:45;;;;;;;3.15;3.05;;;34.10;53.50;;;;;;4941925;28;93100;-83
2021/06/07 10:28:11;;;;;;;3.63;3.50;;;33.90;54.10;;;;;;4939316;28;93120;-84
2021/06/07 10:30:39;;;;;;;3.78;3.67;;;34.60;53.00;;;;;;4940770;28;92247;-84
2021/06/07 10:33:24;;;;;;;3.67;3.58;;;35.60;52.10;;;;;;4939959;28;91972;-84
2021/06/07 10:35:50;;;;;;;3.63;3.42;;;36.70;47.20;;;;;;4934293;28;91984;-85
2021/06/07 10:38:31;;;;;;;3.88;3.67;;;36.70;48.80;;;;;;4940202;28;92741;-83
2021/06/07 10:41:21;;;;;;;4.30;4.10;;;37.10;47.10;;;;;;4942763;28;92106;-84
2021/06/07 10:43:59;;;;;;;3.70;3.50;;;36.60;46.70;;;;;;4946516;28;93744;-84
2021/06/07 10:46:42;;;;;;;3.10;3.00;;;36.50;46.20;;;;;;4949439;28;91393;-82
2021/06/07 10:49:45;;;;;;;4.40;4.13;;;36.30;46.40;;;;;;4941926;28;91897;-83
2021/06/07 10:52:23;;;;;;;2.28;2.05;;;35.80;46.10;;;;;;4941513;28;91891;-82
2021/06/07 10:54:56;;;;;;;3.67;3.58;;;36.30;47.40;;;;;;4942336;28;92888;-83
2021/06/07 10:57:36;;;;;;;4.38;4.07;;;37.90;44.90;;;;;;4932433;28;92187;-84
2021/06/07 11:00:12;;;;;;;3.67;3.58;;;39.70;42.80;;;;;;4937240;28;92451;-83
2021/06/07 11:02:40;;;;;;;4.88;4.57;;;40.70;40.70;;;;;;4935809;28;92073;-85
2021/06/07 11:05:27;;;;;;;4.15;3.95;;;40.60;40.70;;;;;;4937573;28;92523;-85
2021/06/07 11:08:16;;;;;;;2.67;2.40;;;40.30;40.20;;;;;;4942301;28;92733;-85
2021/06/07 11:11:03;;;;;;;4.55;4.22;;;40.20;40.80;;;;;;4940790;28;91842;-85
2021/06/07 11:13:51;;;;;;;4.20;4.00;;;41.10;39.90;;;;;;4940199;28;92942;-86
2021/06/07 11:16:26;;;;;;;2.70;2.60;;;42.00;39.60;;;;;;4939237;28;92434;-85
2021/06/07 11:19:06;;;;;;;4.50;4.30;;;42.40;38.40;;;;;;4934844;28;91853;-85
2021/06/07 11:21:31;;;;;;;;;;;42.50;37.90;;;;;;4928559;28;92990;-85
2021/06/07 11:23:58;;;;;;;4.63;4.43;;;42.70;37.70;;;;;;4939017;28;92225;-85
2021/06/07 11:26:41;;;;;;;3.90;3.80;;;41.90;39.40;;;;;;4940230;28;91928;-86
2021/06/07 11:29:13;;;;;;;4.80;4.60;;;42.10;37.60;;;;;;4942616;28;92119;-84
2021/06/07 11:31:41;;;;;;;2.45;2.35;;;42.30;37.70;;;;;;4920317;28;92050;-84
2021/06/07 11:34:12;;;;;;;4.57;4.37;;;42.90;36.60;;;;;;4941224;28;91707;-84
2021/06/07 11:37:00;;;;;;;4.55;4.35;;;43.40;36.70;;;;;;4934655;28;93201;-85
2021/06/07 11:39:46;;;;;;;4.70;4.50;;;43.70;35.40;;;;;;4947741;28;91990;-84
2021/06/07 11:42:17;;;;;;;5.13;4.93;;;44.00;35.80;;;;;;4941165;28;92112;-85
2021/06/07 11:44:46;;;;;;;4.88;4.68;;;43.90;36.00;;;;;;4947481;28;92428;-85
2021/06/07 11:47:43;;;;;;;4.85;4.65;;;43.30;35.40;;;;;;4935246;28;92965;-85
2021/06/07 11:50:09;;;;;;;5.22;5.03;;;43.30;35.90;;;;;;4924032;28;92187;-85
2021/06/07 11:52:35;;;;;;;5.00;4.80;;;43.10;36.50;;;;;;4947210;28;91929;-86
2021/06/07 11:55:27;;;;;;;3.08;2.97;;;43.50;35.70;;;;;;4940922;28;91923;-85
2021/06/07 11:58:04;;;;;;;4.93;4.72;;;43.60;35.30;;;;;;4937664;28;92896;-85
2021/06/07 12:00:39;;;;;;;6.10;5.80;;;43.90;34.60;;;;;;4948142;28;93293;-86
2021/06/07 12:03:11;;;;;;;5.47;5.18;;;44.20;35.30;;;;;;4947274;28;91949;-85
2021/06/07 12:05:37;;;;;;;5.80;5.45;;;44.80;35.20;;;;;;4953088;28;90685;-85
2021/06/07 12:08:05;;;;;;;5.18;4.88;;;44.60;34.20;;;;;;4950167;28;92379;-86
2021/06/07 12:10:31;;;;;;;6.10;5.90;;;44.90;33.90;;;;;;4955052;28;91698;-85
2021/06/07 12:13:11;;;;;;;4.90;4.70;;;43.40;34.60;;;;;;4944348;28;92237;-85
2021/06/07 12:15:37;;;;;;;5.05;4.85;;;41.80;35.90;;;;;;4954756;28;92055;-85
2021/06/07 12:18:04;;;;;;;5.65;5.45;;;40.20;37.20;;;;;;4945838;28;92061;-85
2021/06/07 12:20:29;;;;;;;4.57;4.38;;;38.60;39.20;;;;;;4950995;28;91604;-84
2021/06/07 12:22:57;;;;;;;4.80;4.60;;;38.10;40.20;;;;;;4943308;28;91864;-85
2021/06/07 12:28:19;;;;;;;4.97;4.78;;;40.10;39.50;;;;;;4943142;28;93288;-85
2021/06/07 12:30:48;;;;;;;4.90;4.60;;;40.20;37.40;;;;;;4945674;28;91274;-85
2021/06/07 12:33:24;;;;;;;5.53;5.18;;;39.60;38.30;;;;;;4917622;28;91840;-85
2021/06/07 12:35:53;;;;;;;4.65;4.45;;;39.00;39.00;;;;;;4945922;28;91953;-85
2021/06/07 12:38:19;;;;;;;4.75;4.53;;;38.70;39.50;;;;;;4941138;28;93057;-85
2021/06/07 12:40:51;;;;;;;4.72;4.43;;;38.40;39.60;;;;;;4938338;28;92167;-84
2021/06/07 12:43:20;;;;;;;4.30;4.10;;;38.80;39.40;;;;;;4943633;28;91284;-85
2021/06/07 12:46:07;;;;;;;4.35;4.15;;;39.20;38.70;;;;;;4942470;28;92327;-84
2021/06/07 12:48:37;;;;;;;4.78;4.57;;;39.40;38.60;;;;;;4950001;28;92117;-83
2021/06/07 12:51:05;;;;;;;4.20;4.00;;;38.70;39.30;;;;;;4949091;28;92990;-85
2021/06/07 12:53:38;;;;;;;4.03;3.92;;;38.00;39.20;;;;;;4950478;28;91953;-83
2021/06/07 12:56:20;;;;;;;3.90;3.70;;;36.80;40.10;;;;;;4955678;28;90601;-84
2021/06/07 12:58:50;;;;;;;3.83;3.53;;;35.70;40.50;;;;;;4956278;28;92514;-82
2021/06/07 13:01:17;;;;;;;8.18;4.40;;;34.70;42.30;;;;;;4945462;28;92309;-83
2021/06/07 13:03:56;;;;;;;3.58;3.47;;;33.90;43.10;;;;;;4940099;28;92998;-81
2021/06/07 13:06:23;;;;;;;3.42;3.22;;;33.10;44.10;;;;;;4941201;28;92016;-82
2021/06/07 13:08:49;;;;;;;3.85;3.75;;;32.30;45.00;;;;;;4936906;28;92209;-82
2021/06/07 13:11:15;;;;;;;3.30;3.20;;;31.40;47.60;;;;;;4942899;28;92031;-85
2021/06/07 13:13:46;;;;;;;3.50;3.40;;;30.70;48.30;;;;;;4935027;28;92082;-83
2021/06/07 13:16:19;;;;;;;3.70;3.50;;;30.20;49.80;;;;;;4943353;28;91968;-84
2021/06/07 13:19:00;;;;;;;3.70;3.58;;;29.80;50.70;;;;;;4933530;28;92400;-83
2021/06/07 13:21:49;;;;;;;3.10;3.00;;;29.40;52.30;;;;;;4941243;28;91737;-83
2021/06/07 13:24:20;;;;;;;3.50;3.30;;;29.00;52.20;;;;;;4942350;28;92020;-84
2021/06/07 13:26:48;;;;;;;3.13;3.00;;;28.50;53.10;;;;;;4938936;28;92048;-83
2021/06/07 13:29:23;;;;;;;3.42;3.30;;;28.20;54.10;;;;;;4938120;28;92986;-83
2021/06/07 13:31:59;;;;;;;3.60;3.30;;;28.00;54.90;;;;;;4940527;28;93762;-84
2021/06/07 13:34:30;;;;;;;3.80;3.60;;;27.80;55.00;;;;;;4937744;28;92044;-83
2021/06/07 13:37:09;;;;;;;3.20;3.10;;;27.60;55.50;;;;;;4933394;28;92106;-84
2021/06/07 13:39:36;;;;;;;3.40;3.30;;;27.30;56.90;;;;;;4934241;28;91868;-84
2021/06/07 13:42:02;;;;;;;3.30;3.17;;;27.10;57.00;;;;;;4930233;28;91954;-83
2021/06/07 13:44:45;;;;;;;3.80;3.55;;;27.00;58.40;;;;;;4944211;28;92151;-83
2021/06/07 13:47:11;;;;;;;4.63;4.32;;;26.80;60.20;;;;;;4939621;28;91300;-84
2021/06/07 13:49:36;;;;;;;4.22;4.00;;;26.40;62.10;;;;;;4943342;28;92254;-84
2021/06/07 13:52:15;;;;;;;4.80;4.50;;;26.10;63.40;;;;;;4938532;28;93384;-82
2021/06/07 13:54:56;;;;;;;5.20;4.75;;;25.80;65.60;;;;;;4938656;28;92795;-83
2021/06/07 13:57:21;;;;;;;4.57;4.28;;;25.60;66.80;;;;;;4940201;28;91636;-85
2021/06/07 13:59:47;;;;;;;5.03;4.63;;;25.20;66.80;;;;;;4940262;28;92792;-82
2021/06/07 14:02:13;;;;;;;4.25;4.05;;;24.70;69.40;;;;;;4944511;28;92965;-83
2021/06/07 14:04:41;;;;;;;4.50;4.30;;;24.30;72.60;;;;;;4946723;28;91868;-83
2021/06/07 14:07:07;;;;;;;4.78;4.47;;;23.60;76.80;;;;;;4940891;28;92718;-82
2021/06/07 14:09:33;;;;;;;4.95;4.65;;;23.20;79.40;;;;;;4937602;28;91967;-83
2021/06/07 14:11:58;;;;;;;4.22;3.92;;;22.90;81.20;;;;;;4939910;28;91243;-86
2021/06/07 14:14:25;;;;;;;4.75;4.40;;;23.10;82.00;;;;;;4947832;28;91943;-84
2021/06/07 14:16:51;;;;;;;4.60;4.30;;;22.90;84.30;;;;;;4942732;28;91831;-83
2021/06/07 14:19:16;;;;;;;4.38;4.05;;;22.60;87.50;;;;;;4945754;28;92962;-81
2021/06/07 14:24:38;;;;;;;4.40;4.05;;;22.10;91.50;;;;;;4930245;28;92142;-83
2021/06/07 14:27:05;;;;;;;5.20;4.80;;;22.10;93.40;;;;;;4953666;28;91857;-81
2021/06/07 14:29:32;;;;;;;4.70;4.40;;;21.90;94.80;;;;;;4944704;28;92216;-82
2021/06/07 14:31:58;;;;;;;5.55;4.80;;;21.90;95.80;;;;;;4948252;28;92380;-83
2021/06/07 14:34:24;;;;;;;6.53;5.95;;;21.50;96.60;;;;;;4943678;28;91940;-81
2021/06/07 14:36:50;;;;;;;4.95;4.65;;;21.30;97.90;;;;;;4948121;28;91409;-82
2021/06/07 14:39:17;;;;;;;5.70;5.30;;;21.30;99.80;;;;;;4947753;28;92748;-82
2021/06/07 14:41:43;;;;;;;4.85;4.55;;;21.30;99.90;;;;;;4956540;28;92083;-85
2021/06/07 14:44:09;;;;;;;5.95;5.15;;;21.30;99.90;;;;;;4955546;28;93015;-83
2021/06/07 14:46:35;;;;;;;4.70;4.40;;;20.50;99.90;;;;;;4959866;28;92095;-82
2021/06/07 14:49:00;;;;;;;5.60;5.20;;;20.70;99.90;;;;;;4945007;28;92093;-80
2021/06/07 14:51:26;;;;;;;3.55;3.35;;;20.50;99.90;;;;;;4946600;28;92236;-82
2021/06/07 14:53:52;;;;;;;3.63;3.25;;;19.70;99.90;;;;;;4945558;28;91934;-82
2021/06/07 14:56:17;;;;;;;3.05;2.75;;;19.70;99.90;;;;;;4935283;28;92041;-82
2021/06/07 14:58:43;;;;;;;3.28;3.08;;;19.80;99.90;;;;;;4951870;28;92757;-85
2021/06/07 15:01:10;;;;;;;15.27;3.35;;;19.70;99.90;;;;;;4948541;28;92022;-86
2021/06/07 15:03:36;;;;;;;3.25;3.03;;;19.60;99.90;;;;;;4941651;28;92237;-83
2021/06/07 15:06:02;;;;;;;2.70;2.60;;;19.50;99.90;;;;;;4941965;28;92098;-84
2021/06/07 15:08:27;;;;;;;3.47;3.05;;;19.60;99.90;;;;;;4952201;28;92662;-84
2021/06/07 15:10:53;;;;;;;3.42;3.13;;;19.30;99.90;;;;;;4945684;28;93268;-85
2021/06/07 15:13:21;;;;;;;2.60;2.40;;;19.50;99.90;;;;;;4948065;28;92170;-85
2021/06/07 15:15:47;;;;;;;2.85;2.67;;;;;;;;;;4950849;28;91682;-86
2021/06/07 15:18:12;;;;;;;3.17;2.85;;;19.90;99.90;;;;;;4955583;28;92088;-84
2021/06/07 15:20:38;;;;;;;3.30;3.10;;;20.10;99.90;;;;;;4945881;28;91935;-85
2021/06/07 15:23:04;;;;;;;2.90;2.72;;;19.90;99.90;;;;;;4953354;28;92127;-85
2021/06/07 15:25:31;;;;;;;2.72;2.63;;;19.80;99.90;;;;;;4951925;28;91276;-84
2021/06/07 15:27:57;;;;;;;2.97;2.67;;;20.00;99.90;;;;;;4950672;28;92186;-85
2021/06/07 15:30:22;;;;;;;3.88;3.00;;;20.00;99.90;;;;;;4953098;28;92871;-87
2021/06/07 15:32:52;;;;;;;3.03;2.83;;;19.70;99.90;;;;;;4946625;28;93105;-85
2021/06/07 15:35:36;;;;;;;3.75;3.53;;;20.00;99.90;;;;;;4944088;28;91829;-85
2021/06/07 15:38:15;;;;;;;3.28;2.80;;;19.50;99.90;;;;;;4943977;28;92410;-84
2021/06/07 15:40:41;;;;;;;3.72;3.45;;;20.40;99.90;;;;;;4948087;28;91900;-85
2021/06/07 15:43:07;;;;;;;3.33;3.13;;;20.20;99.90;;;;;;4937197;28;91902;-84
2021/06/07 15:45:35;;;;;;;3.78;3.08;;;20.30;99.90;;;;;;4950334;28;91842;-85
2021/06/07 15:48:04;;;;;;;3.30;3.03;;;20.60;99.90;;;;;;4949089;28;92307;-83
2021/06/07 15:50:30;;;;;;;2.90;2.70;;;20.50;99.90;;;;;;4944578;28;93146;-85
2021/06/07 15:52:57;;;;;;;4.55;3.30;;;20.80;99.90;;;;;;4951475;28;92099;-84
2021/06/07 15:55:24;;;;;;;3.20;2.90;;;20.70;99.90;;;;;;4951762;28;91997;-83